Maersk Bulan — 9V7693 — position and weather

sailwx.info

Track history (hours):
 
Tides and Currents Weather Stations Pressure Air Temp Water Temp Dewpoint Dewpoint Depression Visibility Wind Speed Wind Dir Waves Ship Positions

Maersk Bulan

Last reported at 2014-Jul-30 05:30 UTC. Time now 2014-Jul-30 09:13 UTC.
Position N 35°60' W 005°19'.

Length 223 m; draft 11.2 m.

Type: Ship (hazmat cat A). MMSI: 563455000.

Date/timePositionNaut miles runAvg speedWind from/ knotsBaromVisibWave heightAir tempDewpointWater temp
2014-Jul-30 05:30N 35°60' W 005°19'11012.3
2014-Jul-29 20:33N 35°58' W 007°35'4715.0
2014-Jul-29 17:24N 35°60' W 008°33'1314.9
2014-Jul-29 16:33N 36°00' W 008°49'1514.8
2014-Jul-29 15:32N 36°01' W 009°08'2914.6
2014-Jul-29 13:32N 36°02' W 009°44'5714.2
2014-Jul-29 09:33N 36°03' W 010°54'2014.1
2014-Jul-29 08:09N 36°03' W 011°18'2514.0
2014-Jul-29 06:22N 36°04' W 011°49'3014.1
2014-Jul-29 04:14N 36°04' W 012°26'913.9
2014-Jul-29 03:33N 36°04' W 012°38'1414.1
2014-Jul-29 02:33N 36°04' W 012°55'1413.9
2014-Jul-29 01:33N 36°04' W 013°13'7313.5
2014-Jul-28 20:10N 36°03' W 014°43'45313.7
2014-Jul-27 11:10N 35°30' W 023°60'2814.4
2014-Jul-27 09:13N 35°24' W 024°34'1114.5
2014-Jul-27 08:26N 35°22' W 024°47'  
Track history (hours):
 
Tides and Currents Weather Stations Pressure Air Temp Water Temp Dewpoint Dewpoint Depression Visibility Wind Speed Wind Dir Waves Ship Positions

Maersk Bulan

Last reported at 2014-Jul-30 05:30 UTC. Time now 2014-Jul-30 09:13 UTC.
Position N 35°60' W 005°19'.

Length 223 m; draft 11.2 m.

Type: Ship (hazmat cat A). MMSI: 563455000.

Date/timePositionNaut miles runAvg speedWind from/ knotsBaromVisibWave heightAir tempDewpointWater temp
2014-Jul-30 05:30N 35°60' W 005°19'11012.3
2014-Jul-29 20:33N 35°58' W 007°35'4715.0
2014-Jul-29 17:24N 35°60' W 008°33'1314.9
2014-Jul-29 16:33N 36°00' W 008°49'1514.8
2014-Jul-29 15:32N 36°01' W 009°08'2914.6
2014-Jul-29 13:32N 36°02' W 009°44'5714.2
2014-Jul-29 09:33N 36°03' W 010°54'2014.1
2014-Jul-29 08:09N 36°03' W 011°18'2514.0
2014-Jul-29 06:22N 36°04' W 011°49'3014.1
2014-Jul-29 04:14N 36°04' W 012°26'913.9
2014-Jul-29 03:33N 36°04' W 012°38'1414.1
2014-Jul-29 02:33N 36°04' W 012°55'1413.9
2014-Jul-29 01:33N 36°04' W 013°13'7313.5
2014-Jul-28 20:10N 36°03' W 014°43'45313.7
2014-Jul-27 11:10N 35°30' W 023°60'2814.4
2014-Jul-27 09:13N 35°24' W 024°34'1114.5
2014-Jul-27 08:26N 35°22' W 024°47'  

Dump ship's entire track history